Time;durP1;ratioP1;P1;durP2;ratioP2;P2;SDS_P1;SDS_P2;PMS_P1;PMS_P2;Temp;Humidity;BMP_temperature;BMP_pressure;BME280_temperature;BME280_humidity;BME280_pressure;Samples;Min_cycle;Max_cycle;Signal;HPM_P1;HPM_P2
2021/08/20 00:02:18;;;;;;;5.03;3.03;;;16.20;99.90;;;14.90;91.08;101163.78;2567829;30;137325;-40
2021/08/20 00:04:45;;;;;;;6.20;2.90;;;16.20;99.90;;;14.81;91.02;101157.78;2567507;30;138243;-44
2021/08/20 00:07:13;;;;;;;5.38;3.22;;;16.20;99.90;;;14.73;91.36;101153.44;2567942;30;137575;-40
2021/08/20 00:09:41;;;;;;;5.32;3.25;;;16.10;99.90;;;14.68;91.55;101153.28;2567647;30;138533;-41
2021/08/20 00:12:09;;;;;;;4.97;2.70;;;16.00;99.90;;;14.60;91.64;101150.88;2567915;30;136820;-40
2021/08/20 00:14:37;;;;;;;5.18;3.05;;;16.00;99.90;;;14.48;92.03;101148.88;2566497;30;137608;-40
2021/08/20 00:17:05;;;;;;;4.05;2.53;;;15.90;99.90;;;14.51;91.82;101156.66;2566322;30;137008;-40
2021/08/20 00:19:34;;;;;;;6.05;3.25;;;15.90;99.90;;;14.47;92.08;101149.94;2567199;30;139357;-40
2021/08/20 00:22:05;;;;;;;4.88;3.10;;;15.90;99.90;;;14.44;92.31;101160.53;2567596;30;137206;-41
2021/08/20 00:24:35;;;;;;;5.22;2.90;;;15.80;99.90;;;14.39;92.00;101151.09;2566869;30;138239;-41
2021/08/20 00:27:03;;;;;;;4.95;3.10;;;15.80;99.90;;;14.36;92.48;101156.22;2566728;30;138077;-44
2021/08/20 00:29:31;;;;;;;5.00;2.78;;;15.70;99.90;;;14.32;92.14;101150.34;2566562;30;140084;-41
2021/08/20 00:32:00;;;;;;;4.72;2.95;;;15.70;99.90;;;14.27;92.70;101158.44;2567241;30;136961;-40
2021/08/20 00:34:28;;;;;;;4.80;3.00;;;15.60;99.90;;;14.22;93.10;101156.38;2566161;30;138600;-40
2021/08/20 00:36:58;;;;;;;4.13;2.83;;;15.60;99.90;;;14.20;93.12;101164.00;2567676;30;138135;-40
2021/08/20 00:39:25;;;;;;;6.22;3.50;;;15.60;99.90;;;14.22;93.33;101161.03;2567716;30;139236;-41
2021/08/20 00:41:55;;;;;;;6.70;2.88;;;15.60;99.90;;;14.21;93.75;101167.59;2567051;30;138431;-42
2021/08/20 00:44:23;;;;;;;5.35;3.15;;;15.60;99.90;;;14.19;93.69;101166.97;2567027;30;137415;-40
2021/08/20 00:46:50;;;;;;;;;;;15.60;99.90;;;14.18;93.86;101168.88;2568551;30;137643;-40
2021/08/20 00:49:22;;;;;;;6.28;3.40;;;15.50;99.90;;;14.20;93.67;101165.91;2565210;30;139885;-41
2021/08/20 00:51:51;;;;;;;4.13;2.67;;;15.60;99.90;;;14.18;93.80;101159.78;2568327;30;138252;-42
2021/08/20 00:54:20;;;;;;;5.40;3.28;;;15.60;99.90;;;14.18;93.96;101171.63;2568692;30;138423;-40
2021/08/20 00:56:51;;;;;;;5.15;3.22;;;15.60;99.90;;;14.16;93.53;101167.41;2568760;30;137646;-40
2021/08/20 00:59:24;;;;;;;5.20;3.63;;;15.50;99.90;;;14.15;93.60;101172.09;2567770;30;139770;-41
2021/08/20 01:01:51;;;;;;;4.60;3.13;;;15.50;99.90;;;14.25;94.12;101171.56;2567711;30;137327;-40
2021/08/20 01:04:19;;;;;;;6.57;3.38;;;15.60;99.90;;;14.26;94.07;101166.88;2568542;30;137575;-40
2021/08/20 01:06:47;;;;;;;6.03;3.55;;;15.60;99.90;;;14.28;93.81;101170.25;2568321;30;138901;-41
2021/08/20 01:09:16;;;;;;;5.25;3.33;;;15.60;99.90;;;14.30;93.97;101168.09;2568434;30;139240;-43
2021/08/20 01:11:43;;;;;;;5.47;3.63;;;15.60;99.90;;;14.27;93.86;101166.66;2567550;30;137442;-40
2021/08/20 01:14:16;;;;;;;4.65;3.17;;;15.60;99.90;;;14.28;93.44;101164.75;2567510;30;140008;-43
2021/08/20 01:16:44;;;;;;;6.03;3.28;;;15.60;99.90;;;14.32;93.13;101166.81;2565735;30;139337;-40
2021/08/20 01:19:11;;;;;;;5.78;3.50;;;15.70;99.90;;;14.28;93.23;101168.34;2567818;30;139030;-41
2021/08/20 01:21:39;;;;;;;5.43;3.28;;;15.60;99.90;;;14.27;93.25;101166.66;2566731;30;138793;-40
2021/08/20 01:24:09;;;;;;;5.07;3.15;;;15.60;99.90;;;14.30;93.26;101165.34;2566877;30;139629;-41
2021/08/20 01:26:37;;;;;;;5.25;3.33;;;15.60;99.90;;;14.31;93.22;101169.78;2568306;30;138284;-40
2021/08/20 01:29:04;;;;;;;6.05;3.60;;;15.60;99.90;;;14.30;93.57;101162.63;2568567;30;139166;-41
2021/08/20 01:31:32;;;;;;;5.68;3.45;;;15.60;99.90;;;14.26;93.44;101162.25;2567078;30;139324;-41
2021/08/20 01:34:01;;;;;;;5.93;3.30;;;15.60;99.90;;;14.28;93.38;101173.00;2568232;30;138238;-40
2021/08/20 01:36:28;;;;;;;7.43;3.75;;;15.60;99.90;;;14.30;92.86;101162.63;2567374;30;136929;-40
2021/08/20 01:38:58;;;;;;;5.80;3.83;;;15.70;99.90;;;14.31;92.81;101165.16;2568239;30;139740;-41
2021/08/20 01:41:28;;;;;;;5.32;3.47;;;15.60;99.90;;;14.30;92.85;101165.34;2565759;30;137448;-40
2021/08/20 01:43:58;;;;;;;6.88;3.60;;;15.60;99.90;;;14.26;93.06;101167.75;2567585;30;137389;-38
2021/08/20 01:46:27;;;;;;;4.75;3.08;;;15.60;99.90;;;14.24;93.32;101176.19;2568874;30;136867;-40
2021/08/20 01:48:58;;;;;;;7.47;3.65;;;15.60;99.90;;;14.28;93.18;101175.72;2569255;30;137253;-40
2021/08/20 01:51:33;;;;;;;6.20;3.80;;;15.60;99.90;;;14.25;93.13;101166.06;2568357;30;138743;-40
2021/08/20 01:54:03;;;;;;;6.07;3.55;;;15.60;99.90;;;14.21;93.47;101171.16;2566815;30;138692;-40
2021/08/20 01:56:34;;;;;;;6.78;3.90;;;15.60;99.90;;;14.26;92.96;101167.75;2567702;30;137465;-40
2021/08/20 01:59:12;;;;;;;6.53;4.05;;;15.60;99.90;;;14.22;93.06;101175.59;2567333;30;138562;-39
2021/08/20 02:01:40;;;;;;;7.28;4.47;;;15.60;99.90;;;14.26;92.89;101183.34;2567327;30;139409;-39
2021/08/20 02:04:08;;;;;;;7.95;4.13;;;15.50;99.90;;;14.19;93.15;101184.28;2566240;30;138337;-39
2021/08/20 02:06:35;;;;;;;7.25;5.05;;;15.50;99.90;;;14.26;92.92;101180.59;2566906;30;137185;-41
2021/08/20 02:09:04;;;;;;;6.75;4.60;;;15.60;99.90;;;14.24;93.25;101181.69;2564699;30;138731;-39
2021/08/20 02:11:34;;;;;;;6.78;4.50;;;15.50;99.90;;;14.23;93.31;101184.66;2568374;30;137761;-39
2021/08/20 02:14:03;;;;;;;7.18;4.82;;;15.50;99.90;;;14.20;93.47;101182.38;2567742;30;139447;-39
2021/08/20 02:16:35;;;;;;;7.22;4.50;;;15.50;99.90;;;14.18;93.59;101185.34;2567999;30;137309;-40
2021/08/20 02:19:06;;;;;;;6.78;4.63;;;15.50;99.90;;;14.15;93.80;101183.06;2567190;30;137503;-39
2021/08/20 02:21:34;;;;;;;8.73;5.35;;;15.50;99.90;;;14.14;93.85;101191.50;2568125;30;139597;-40
2021/08/20 02:24:09;;;;;;;8.18;4.82;;;15.50;99.90;;;14.09;93.91;101190.28;2566461;30;139382;-40
2021/08/20 02:26:37;;;;;;;9.57;5.47;;;15.40;99.90;;;14.06;93.90;101190.75;2566859;30;137722;-39
2021/08/20 02:29:04;;;;;;;8.15;5.30;;;15.40;99.90;;;14.02;94.18;101194.16;2567929;30;138167;-39
2021/08/20 02:31:33;;;;;;;7.55;5.70;;;15.40;99.90;;;13.96;94.36;101190.44;2566404;30;137117;-39
2021/08/20 02:34:01;;;;;;;;;;;15.30;99.90;;;13.97;94.44;101191.25;2565906;30;140149;-39
2021/08/20 02:36:29;;;;;;;8.60;5.82;;;15.30;99.90;;;13.90;94.01;101200.41;2568356;30;138151;-39
2021/08/20 02:38:57;;;;;;;10.40;6.03;;;15.30;99.90;;;13.88;94.59;101194.31;2567671;30;138363;-39
2021/08/20 02:41:25;;;;;;;8.02;5.50;;;15.30;99.90;;;13.84;94.69;101193.06;2567838;30;138847;-39
2021/08/20 02:43:57;;;;;;;9.65;6.13;;;15.20;99.90;;;13.81;94.79;101199.03;2564061;30;139572;-39
2021/08/20 02:46:24;;;;;;;10.55;6.03;;;15.20;99.90;;;13.76;94.70;101190.59;2575121;30;137148;-40
2021/08/20 02:48:53;;;;;;;9.88;6.20;;;15.20;99.90;;;13.78;94.37;101197.56;2569136;30;137500;-40
2021/08/20 02:51:24;;;;;;;10.00;6.32;;;15.10;99.90;;;13.71;94.71;101191.28;2568866;30;136961;-40
2021/08/20 02:53:51;;;;;;;10.27;5.95;;;15.10;99.90;;;13.68;94.68;101193.63;2568651;30;137099;-40
2021/08/20 02:56:20;;;;;;;9.23;6.75;;;15.10;99.90;;;13.62;95.31;101190.75;2568411;30;137082;-40
2021/08/20 02:58:52;;;;;;;9.98;6.93;;;15.00;99.90;;;13.57;95.36;101193.31;2569254;30;139341;-40
2021/08/20 03:01:20;;;;;;;10.20;7.03;;;15.00;99.90;;;13.56;95.38;101197.13;2568312;30;138430;-40
2021/08/20 03:03:49;;;;;;;10.20;6.93;;;15.00;99.90;;;13.49;95.97;101197.16;2567538;30;138425;-40
2021/08/20 03:06:21;;;;;;;11.55;7.15;;;14.90;99.90;;;13.50;95.96;101203.47;2568659;30;138638;-40
2021/08/20 03:08:48;;;;;;;;;;;14.90;99.90;;;13.43;95.84;101197.22;2567485;30;139459;-40
2021/08/20 03:11:17;;;;;;;10.77;6.57;;;14.90;99.90;;;13.37;96.25;101188.78;2569039;30;139293;-40
2021/08/20 03:13:45;;;;;;;10.20;6.57;;;14.80;99.90;;;13.40;96.58;101189.41;2566273;30;140512;-40
2021/08/20 03:16:13;;;;;;;12.55;7.38;;;14.80;99.90;;;13.37;96.88;101199.75;2569662;30;139334;-40
2021/08/20 03:18:43;;;;;;;10.85;7.40;;;14.80;99.90;;;13.35;96.97;101195.53;2569468;30;138207;-40
2021/08/20 03:21:18;;;;;;;9.55;6.93;;;14.70;99.90;;;13.29;97.13;101196.44;2566468;30;140226;-40
2021/08/20 03:23:55;;;;;;;8.23;5.95;;;14.70;99.90;;;13.23;96.96;101203.63;2567942;30;138337;-39
2021/08/20 03:26:25;;;;;;;10.48;6.65;;;14.70;99.90;;;13.16;96.85;101194.63;2569935;30;139341;-40
2021/08/20 03:28:58;;;;;;;11.00;6.93;;;14.60;99.90;;;13.16;96.79;101202.84;2568790;30;139552;-40
2021/08/20 03:31:27;;;;;;;10.02;6.75;;;14.60;99.90;;;13.13;96.88;101203.28;2569678;30;137136;-40
2021/08/20 03:33:56;;;;;;;10.25;6.43;;;14.60;99.90;;;13.06;96.80;101201.44;2569486;30;139892;-39
2021/08/20 03:36:27;;;;;;;9.55;6.93;;;14.50;99.90;;;13.05;96.84;101199.75;2569279;30;137440;-40
2021/08/20 03:39:02;;;;;;;9.68;6.20;;;14.50;99.90;;;13.02;96.97;101200.22;2568454;30;139765;-40
2021/08/20 03:41:33;;;;;;;9.73;5.85;;;14.50;99.90;;;13.01;97.30;101209.47;2569210;30;139427;-40
2021/08/20 03:44:06;;;;;;;14.13;6.32;;;14.50;99.90;;;13.02;97.36;101202.94;2568452;30;140858;-42
2021/08/20 03:46:41;;;;;;;10.13;6.35;;;14.40;99.90;;;13.04;97.85;101199.97;2568065;30;137028;-40
2021/08/20 03:49:09;;;;;;;8.35;6.15;;;14.50;99.90;;;13.01;98.13;101195.78;2568328;30;138956;-40
2021/08/20 03:51:37;;;;;;;9.75;6.38;;;14.40;99.90;;;13.02;98.09;101208.41;2568732;30;137430;-41
2021/08/20 03:54:15;;;;;;;11.68;6.80;;;14.50;99.90;;;13.04;98.68;101209.03;2567968;30;139562;-40
2021/08/20 03:56:43;;;;;;;;;;;14.50;99.90;;;13.02;98.67;101207.56;2567819;30;139251;-40
2021/08/20 03:59:18;;;;;;;10.30;6.18;;;14.40;99.90;;;13.03;98.49;101209.25;2569191;30;138429;-40
2021/08/20 04:01:47;;;;;;;9.85;6.05;;;14.50;99.90;;;13.02;98.07;101211.16;2566885;30;139317;-42
2021/08/20 04:04:16;;;;;;;9.10;6.47;;;14.40;99.90;;;13.11;97.70;101208.16;2567737;30;139549;-40
2021/08/20 04:06:51;;;;;;;9.32;6.15;;;14.50;99.90;;;13.11;97.42;101213.63;2566455;30;138900;-40
2021/08/20 04:09:21;;;;;;;12.95;6.75;;;14.50;99.90;;;13.09;97.52;101213.84;2568488;30;139654;-40
2021/08/20 04:12:04;;;;;;;8.18;5.35;;;14.50;99.90;;;13.09;97.29;101211.94;2569411;30;136956;-40
2021/08/20 04:14:46;;;;;;;9.77;5.65;;;14.50;99.90;;;13.07;97.21;101216.81;2566416;30;140947;-40
2021/08/20 04:17:14;;;;;;;8.93;5.68;;;14.50;99.90;;;13.05;97.32;101218.94;2570051;30;139279;-40
2021/08/20 04:19:42;;;;;;;8.77;5.40;;;14.50;99.90;;;13.09;97.91;101227.53;2567929;30;140113;-40
2021/08/20 04:22:11;;;;;;;10.75;6.63;;;14.50;99.90;;;13.12;98.01;101224.34;2567199;30;139426;-40
2021/08/20 04:24:41;;;;;;;11.48;6.50;;;14.50;99.90;;;13.13;98.23;101214.25;2569303;30;138990;-40
2021/08/20 04:27:44;;;;;;;8.98;6.25;;;14.50;99.90;;;13.21;98.58;101216.72;2569821;30;137152;-40
2021/08/20 04:30:28;;;;;;;8.55;6.05;;;14.60;99.90;;;13.25;98.43;101223.44;2568146;30;138225;-40
2021/08/20 04:33:19;;;;;;;11.45;6.90;;;14.60;99.90;;;13.26;98.36;101216.91;2568241;30;139083;-40
2021/08/20 04:36:07;;;;;;;9.68;6.60;;;14.60;99.90;;;13.26;97.74;101214.19;2569703;30;137026;-40
2021/08/20 04:38:44;;;;;;;10.00;6.30;;;14.70;99.90;;;13.31;97.35;101217.09;2569548;30;138824;-40
2021/08/20 04:41:25;;;;;;;10.82;5.93;;;14.70;99.90;;;13.30;97.30;101214.56;2566994;30;139353;-40
2021/08/20 04:44:19;;;;;;;10.95;6.55;;;14.70;99.90;;;13.30;97.56;101220.91;2571149;30;136855;-41
2021/08/20 04:47:06;;;;;;;8.52;5.65;;;14.70;99.90;;;13.31;96.97;101227.19;2568380;30;139168;-40
2021/08/20 04:49:53;;;;;;;8.85;6.05;;;14.70;99.90;;;13.32;97.01;101227.00;2569786;30;138215;-40
2021/08/20 04:52:39;;;;;;;9.98;6.28;;;14.70;99.90;;;13.35;97.05;101226.53;2567989;30;141043;-40
2021/08/20 04:55:25;;;;;;;9.77;6.88;;;14.70;99.90;;;13.39;97.13;101224.19;2568342;30;136825;-40
2021/08/20 04:57:53;;;;;;;12.88;6.60;;;14.70;99.90;;;13.37;97.00;101231.78;2565374;30;138131;-40
2021/08/20 05:00:24;;;;;;;9.55;5.88;;;14.70;99.90;;;13.37;97.45;101224.41;2569029;30;138669;-40
2021/08/20 05:02:52;;;;;;;10.73;6.43;;;14.70;99.90;;;13.40;97.18;101227.78;2568418;30;138314;-40
2021/08/20 05:05:20;;;;;;;9.98;6.38;;;14.70;99.90;;;13.37;96.86;101226.31;2570205;30;137169;-40
2021/08/20 05:07:47;;;;;;;9.75;5.70;;;14.70;99.90;;;13.36;96.72;101232.84;2570387;30;138904;-40
2021/08/20 05:10:15;;;;;;;9.73;6.18;;;14.70;99.90;;;13.35;97.12;101234.75;2569420;30;136945;-40
2021/08/20 05:12:43;;;;;;;9.88;6.13;;;14.70;99.90;;;13.33;97.16;101236.88;2567700;30;137695;-40
2021/08/20 05:15:11;;;;;;;10.93;6.20;;;14.70;99.90;;;13.34;97.16;101227.59;2569333;30;137909;-40
2021/08/20 05:17:38;;;;;;;12.00;6.03;;;14.70;99.90;;;13.40;97.32;101230.50;2568166;30;138466;-40
2021/08/20 05:20:06;;;;;;;13.23;6.25;;;14.70;99.90;;;13.46;97.77;101243.34;2567060;30;137455;-40
2021/08/20 05:22:52;;;;;;;9.32;6.25;;;14.80;99.90;;;13.55;98.00;101241.19;2568183;30;138692;-40
2021/08/20 05:25:25;;;;;;;10.82;6.15;;;14.80;99.90;;;13.68;98.04;101241.09;2570049;30;137393;-40
2021/08/20 05:27:53;;;;;;;11.20;6.78;;;14.90;99.90;;;13.81;97.62;101249.19;2568826;30;139112;-40
2021/08/20 05:30:21;;;;;;;12.70;6.78;;;15.00;99.90;;;13.97;97.76;101236.00;2569442;30;138715;-40
2021/08/20 05:32:48;;;;;;;11.30;6.22;;;15.20;99.90;;;14.11;97.99;101242.19;2569280;30;138171;-40
2021/08/20 05:35:17;;;;;;;11.07;6.75;;;15.30;99.90;;;14.30;98.22;101250.44;2568748;30;138446;-40
2021/08/20 05:37:44;;;;;;;;;;;15.40;99.90;;;14.37;97.93;101246.56;2568616;30;138646;-40
2021/08/20 05:40:13;;;;;;;12.40;7.32;;;15.50;99.90;;;14.46;97.77;101255.34;2568095;30;137660;-40
2021/08/20 05:42:40;;;;;;;12.95;7.15;;;15.60;99.90;;;14.56;97.78;101252.06;2570816;30;138357;-40
2021/08/20 05:45:10;;;;;;;11.60;7.28;;;15.70;99.90;;;14.65;95.25;101256.16;2569205;30;137285;-40
2021/08/20 05:47:38;;;;;;;13.20;7.10;;;15.80;99.90;;;14.73;95.99;101248.75;2567070;30;138447;-40
2021/08/20 05:50:07;;;;;;;12.05;7.18;;;15.90;99.90;;;14.76;95.65;101249.09;2568857;30;138099;-41
2021/08/20 05:52:38;;;;;;;12.23;6.85;;;16.00;99.90;;;14.81;95.39;101256.66;2568939;30;137811;-39
2021/08/20 05:55:07;;;;;;;10.63;6.43;;;16.00;99.90;;;14.81;94.69;101254.75;2569257;30;136715;-40
2021/08/20 05:57:35;;;;;;;12.40;6.60;;;16.10;99.90;;;14.89;94.77;101250.84;2567820;30;139070;-40
2021/08/20 06:00:07;;;;;;;13.23;7.13;;;16.00;99.90;;;14.98;94.87;101254.13;2571892;30;136849;-40
2021/08/20 06:02:44;;;;;;;12.18;6.97;;;16.20;99.90;;;15.06;95.17;101256.53;2569807;30;139715;-40
2021/08/20 06:05:17;;;;;;;12.10;6.13;;;16.20;99.90;;;15.07;93.91;101258.22;2570369;30;139076;-40
2021/08/20 06:07:46;;;;;;;13.07;6.88;;;16.30;99.90;;;15.15;94.46;101264.47;2569199;30;140822;-41
2021/08/20 06:10:13;;;;;;;11.48;6.38;;;16.30;99.90;;;15.23;93.86;101269.63;2569311;30;138217;-40
2021/08/20 06:12:41;;;;;;;13.60;6.60;;;16.40;99.90;;;15.32;93.24;101264.66;2569109;30;138571;-40
2021/08/20 06:15:10;;;;;;;11.48;7.10;;;16.40;99.90;;;15.44;91.96;101267.44;2567951;30;137508;-41
2021/08/20 06:17:38;;;;;;;11.82;6.05;;;16.50;99.90;;;15.46;92.86;101266.13;2568612;30;137570;-41
2021/08/20 06:20:06;;;;;;;10.52;6.20;;;16.60;99.90;;;15.51;93.46;101274.50;2568816;30;137678;-40
2021/08/20 06:22:34;;;;;;;13.32;6.75;;;16.60;99.90;;;15.57;92.37;101269.97;2566875;30;138495;-40
2021/08/20 06:25:01;;;;;;;11.98;6.60;;;16.70;99.90;;;15.62;91.91;101278.34;2569420;30;137977;-40
2021/08/20 06:27:29;;;;;;;11.77;6.53;;;16.80;99.90;;;15.70;91.77;101268.94;2568980;30;137160;-40
2021/08/20 06:29:57;;;;;;;;;;;16.80;99.90;;;15.81;92.03;101272.78;2568451;30;139025;-40
2021/08/20 06:32:24;;;;;;;12.23;6.22;;;16.90;99.90;;;15.89;91.98;101277.13;2567516;30;137932;-40
2021/08/20 06:34:52;;;;;;;14.95;6.95;;;17.00;99.90;;;15.94;90.66;101275.34;2568540;30;137779;-40
2021/08/20 06:37:19;;;;;;;12.60;6.78;;;17.10;99.90;;;15.96;90.00;101281.47;2569311;30;137310;-40
2021/08/20 06:39:47;;;;;;;11.80;6.88;;;17.10;99.90;;;16.02;89.85;101287.91;2569779;30;136719;-40
2021/08/20 06:42:15;;;;;;;;;;;17.10;99.90;;;16.06;88.83;101280.88;2568980;30;139230;-40
2021/08/20 06:44:43;;;;;;;13.95;6.22;;;17.20;99.90;;;16.11;90.27;101285.63;2570068;30;136663;-41
2021/08/20 06:47:12;;;;;;;14.10;7.45;;;17.20;99.90;;;16.19;91.15;101282.56;2566570;30;138240;-40
2021/08/20 06:49:40;;;;;;;11.38;6.60;;;17.30;99.90;;;16.28;89.92;101284.94;2566672;30;137762;-41
2021/08/20 06:52:09;;;;;;;11.85;6.88;;;17.40;99.90;;;16.29;89.16;101283.84;2568699;30;138901;-41
2021/08/20 06:54:36;;;;;;;12.27;6.95;;;17.40;99.90;;;16.40;89.03;101288.50;2568034;30;137804;-40
2021/08/20 06:57:04;;;;;;;14.60;6.90;;;17.50;99.90;;;16.44;87.66;101289.69;2570575;30;138563;-40
2021/08/20 06:59:32;;;;;;;11.93;6.95;;;17.50;99.90;;;16.47;88.64;101294.75;2568534;30;137203;-40
2021/08/20 07:02:00;;;;;;;14.80;7.35;;;17.50;99.90;;;16.50;88.16;101291.50;2566875;30;137494;-40
2021/08/20 07:04:28;;;;;;;12.68;7.40;;;17.60;99.90;;;16.50;88.84;101293.41;2568795;30;137450;-40
2021/08/20 07:06:55;;;;;;;13.80;6.82;;;17.60;99.90;;;16.52;88.58;101300.38;2570458;30;138535;-40
2021/08/20 07:09:24;;;;;;;13.15;7.50;;;17.60;99.90;;;16.56;87.02;101292.44;2566223;30;137327;-39
2021/08/20 07:11:52;;;;;;;12.73;7.05;;;17.60;99.90;;;16.59;87.72;101293.88;2567923;30;139124;-40
2021/08/20 07:14:19;;;;;;;16.88;7.93;;;17.70;99.90;;;16.65;86.65;101290.16;2566350;30;138422;-40
2021/08/20 07:16:47;;;;;;;12.90;7.45;;;17.70;99.90;;;16.80;87.08;101298.75;2569430;30;137340;-41
2021/08/20 07:19:14;;;;;;;;;;;17.80;99.90;;;16.97;87.56;101300.75;2569510;30;136836;-41
2021/08/20 07:21:42;;;;;;;13.90;7.20;;;17.90;99.90;;;17.03;85.33;101291.56;2570021;30;138677;-40
2021/08/20 07:24:09;;;;;;;15.60;7.70;;;18.00;99.90;;;17.11;85.03;101293.91;2568973;30;137060;-41
2021/08/20 07:26:38;;;;;;;13.52;7.50;;;18.10;99.90;;;17.13;85.26;101298.34;2567977;30;139013;-40
2021/08/20 07:29:05;;;;;;;;;;;18.20;99.90;;;17.22;84.14;101299.63;2568737;30;138407;-41
2021/08/20 07:31:35;;;;;;;11.85;6.78;;;18.20;99.90;;;17.24;83.80;101308.50;2570750;30;138380;-40
2021/08/20 07:34:03;;;;;;;14.77;7.13;;;18.30;99.90;;;17.33;84.95;101308.94;2568914;30;136883;-40
2021/08/20 07:36:30;;;;;;;13.23;7.05;;;18.40;99.90;;;17.47;84.47;101306.69;2569149;30;139362;-40
2021/08/20 07:38:58;;;;;;;13.07;6.93;;;18.40;99.90;;;17.69;83.56;101301.31;2568762;30;138669;-40
2021/08/20 07:41:26;;;;;;;13.80;7.18;;;18.60;99.90;;;17.89;82.24;101305.50;2567590;30;138353;-40
2021/08/20 07:43:53;;;;;;;13.05;6.97;;;18.70;99.90;;;17.98;81.99;101302.09;2570031;30;137816;-40
2021/08/20 07:46:21;;;;;;;11.73;6.88;;;18.90;99.90;;;18.17;82.25;101312.06;2566337;30;140326;-40
2021/08/20 07:48:48;;;;;;;11.63;6.88;;;19.00;99.90;;;18.48;79.93;101307.84;2568691;30;136932;-41
2021/08/20 07:51:16;;;;;;;11.68;7.07;;;19.30;99.90;;;18.58;80.15;101309.09;2568413;30;138768;-40
2021/08/20 07:53:43;;;;;;;11.98;6.78;;;19.40;99.90;;;18.63;80.50;101306.41;2569885;30;136959;-40
2021/08/20 07:56:11;;;;;;;11.18;6.30;;;19.50;99.90;;;18.70;79.29;101309.81;2569894;30;137474;-40
2021/08/20 07:58:38;;;;;;;12.98;6.78;;;19.60;99.90;;;18.58;77.36;101311.88;2568467;30;136958;-40
2021/08/20 08:01:06;;;;;;;11.15;7.03;;;19.60;99.90;;;18.58;77.99;101306.34;2567951;30;137508;-40
2021/08/20 08:03:34;;;;;;;12.65;6.63;;;19.60;99.90;;;18.66;77.80;101308.66;2569135;30;137080;-40
2021/08/20 08:06:01;;;;;;;12.30;6.22;;;19.60;99.90;;;18.71;77.67;101307.91;2570142;30;139045;-40
2021/08/20 08:08:33;;;;;;;11.07;6.70;;;19.70;99.90;;;19.01;78.63;101306.66;2569197;30;137162;-40
2021/08/20 08:11:01;;;;;;;12.68;6.38;;;19.80;99.90;;;19.34;76.54;101313.09;2569095;30;137674;-40
2021/08/20 08:13:28;;;;;;;11.30;6.78;;;20.10;99.90;;;19.54;74.75;101309.69;2570987;30;137806;-41
2021/08/20 08:15:56;;;;;;;11.40;6.30;;;20.30;99.90;;;19.64;75.93;101307.06;2570159;30;137290;-40
2021/08/20 08:18:23;;;;;;;;;;;20.40;99.90;;;19.80;77.38;101309.94;2571110;30;136986;-41
2021/08/20 08:20:51;;;;;;;10.77;5.75;;;20.60;99.90;;;19.90;73.45;101310.06;2570039;30;138193;-41
2021/08/20 08:23:19;;;;;;;8.65;5.60;;;20.70;99.90;;;19.84;73.47;101303.63;2570607;30;137011;-41
2021/08/20 08:25:47;;;;;;;12.55;6.10;;;20.70;99.90;;;20.03;75.04;101307.97;2571785;30;137327;-40
2021/08/20 08:28:14;;;;;;;8.93;5.00;;;20.80;99.90;;;20.21;73.80;101310.31;2569382;30;137351;-40
2021/08/20 08:30:42;;;;;;;9.20;5.05;;;21.00;99.90;;;20.47;72.45;101312.41;2569787;30;139091;-40
2021/08/20 08:33:10;;;;;;;8.27;4.72;;;21.10;99.90;;;20.72;72.63;101310.88;2568093;30;136825;-40
2021/08/20 08:35:50;;;;;;;7.82;4.45;;;21.30;99.90;;;20.76;69.92;101317.56;2569059;30;137417;-40
2021/08/20 08:38:18;;;;;;;8.63;3.88;;;21.50;99.90;;;20.81;71.73;101321.22;2569359;30;137002;-40
2021/08/20 08:40:48;;;;;;;5.78;3.83;;;21.60;99.90;;;20.72;71.23;101314.50;2569707;30;137401;-40
2021/08/20 08:43:17;;;;;;;6.47;3.40;;;21.60;99.90;;;20.71;70.22;101321.16;2569482;30;136925;-40
2021/08/20 08:45:45;;;;;;;8.65;3.88;;;21.60;99.90;;;20.68;70.09;101319.75;2568766;30;138135;-40
2021/08/20 08:48:16;;;;;;;5.90;3.30;;;21.60;99.90;;;20.76;70.77;101323.09;2571033;30;137285;-40
2021/08/20 08:50:47;;;;;;;5.78;3.58;;;21.60;99.90;;;20.79;70.45;101322.56;2567164;30;137402;-39
2021/08/20 08:53:16;;;;;;;6.63;3.47;;;21.60;99.90;;;20.78;68.71;101320.91;2569376;30;137728;-40
2021/08/20 08:55:57;;;;;;;5.90;3.20;;;21.70;99.90;;;20.75;69.06;101325.06;2569400;30;137678;-40
2021/08/20 08:58:25;;;;;;;5.75;3.60;;;21.60;99.90;;;20.97;69.81;101324.09;2568601;30;136920;-40
2021/08/20 09:00:53;;;;;;;6.30;3.60;;;21.70;99.90;;;21.11;69.10;101328.00;2568279;30;138224;-39
2021/08/20 09:03:27;;;;;;;6.32;3.63;;;21.80;99.90;;;21.08;66.62;101323.00;2568339;30;137161;-41
2021/08/20 09:05:58;;;;;;;7.32;3.78;;;21.80;99.90;;;21.01;65.41;101322.44;2567227;30;138989;-40
2021/08/20 09:08:27;;;;;;;5.10;3.22;;;21.80;99.90;;;21.08;68.56;101331.34;2568112;30;137412;-40
2021/08/20 09:11:00;;;;;;;4.93;2.80;;;21.90;99.90;;;21.04;68.59;101327.44;2567440;30;138320;-40
2021/08/20 09:13:30;;;;;;;4.88;2.63;;;21.90;99.90;;;20.90;66.06;101332.66;2568469;30;137009;-40
2021/08/20 09:16:13;;;;;;;5.65;2.40;;;21.80;99.90;;;20.65;67.08;101327.75;2567753;30;138146;-40
2021/08/20 09:18:41;;;;;;;3.47;1.92;;;21.70;99.90;;;20.49;69.62;101336.00;2569296;30;137260;-40
2021/08/20 09:21:17;;;;;;;3.72;2.30;;;21.60;99.90;;;20.26;68.98;101332.50;2567284;30;139278;-40
2021/08/20 09:23:45;;;;;;;3.67;2.30;;;21.50;99.90;;;20.07;71.33;101339.56;2568205;30;136984;-39
2021/08/20 09:26:23;;;;;;;4.03;2.50;;;21.20;99.90;;;19.95;72.75;101343.34;2567898;30;138334;-39
2021/08/20 09:28:51;;;;;;;9.02;2.72;;;21.10;99.90;;;19.88;75.74;101342.69;2567975;30;136928;-39
2021/08/20 09:31:22;;;;;;;4.38;2.50;;;21.00;99.90;;;19.82;75.40;101344.59;2569070;30;138198;-39
2021/08/20 09:33:51;;;;;;;3.80;2.25;;;20.90;99.90;;;19.86;77.08;101338.53;2567332;30;137405;-40
2021/08/20 09:36:22;;;;;;;3.63;2.30;;;20.80;99.90;;;19.88;77.60;101345.44;2569086;30;138321;-40
2021/08/20 09:38:56;;;;;;;3.85;2.53;;;20.90;99.90;;;19.91;76.17;101342.22;2567522;30;136971;-40
2021/08/20 09:41:31;;;;;;;5.80;3.03;;;20.90;99.90;;;19.89;74.59;101344.38;2566577;30;137438;-40
2021/08/20 09:44:05;;;;;;;6.88;3.90;;;20.90;99.90;;;19.74;74.98;101344.22;2568010;30;136868;-40
2021/08/20 09:47:03;;;;;;;6.65;3.83;;;20.80;99.90;;;19.70;76.38;101357.75;2567211;30;137540;-40
2021/08/20 09:49:51;;;;;;;7.70;4.35;;;20.80;99.90;;;19.57;77.13;101350.69;2568033;30;137444;-39
2021/08/20 09:52:30;;;;;;;7.35;4.30;;;20.70;99.90;;;19.41;78.70;101360.75;2568225;30;137742;-40
2021/08/20 09:54:58;;;;;;;7.75;4.82;;;20.50;99.90;;;19.26;80.09;101367.78;2567194;30;138250;-39
2021/08/20 09:57:27;;;;;;;7.88;4.60;;;20.40;99.90;;;19.00;81.56;101360.28;2567519;30;138453;-40
2021/08/20 09:59:58;;;;;;;5.40;3.20;;;20.20;99.90;;;18.78;82.68;101367.41;2565754;30;138375;-39
2021/08/20 10:02:29;;;;;;;6.18;4.32;;;20.00;99.90;;;18.63;83.59;101367.19;2568620;30;138308;-41
2021/08/20 10:04:59;;;;;;;6.03;3.80;;;19.80;99.90;;;18.45;84.28;101369.13;2565852;30;137091;-39
2021/08/20 10:07:27;;;;;;;3.75;2.40;;;19.70;99.90;;;18.30;83.76;101360.59;2567221;30;139591;-40
2021/08/20 10:09:59;;;;;;;3.40;1.83;;;19.60;99.90;;;18.23;84.92;101358.84;2567122;30;137770;-40
2021/08/20 10:12:28;;;;;;;3.22;1.75;;;19.40;99.90;;;18.33;86.16;101355.41;2567661;30;138444;-39
2021/08/20 10:14:56;;;;;;;4.25;1.80;;;19.40;99.90;;;18.49;85.94;101350.13;2569083;30;137349;-39
2021/08/20 10:17:24;;;;;;;2.83;1.60;;;19.50;99.90;;;18.71;88.25;101355.69;2568608;30;139046;-39
2021/08/20 10:19:53;;;;;;;3.28;1.88;;;19.60;99.90;;;18.89;87.61;101356.50;2567429;30;137255;-39